Terminal Aerodrome Forecast
Issued by NWS

Home | Current Version | Previous Version | Text Only | Print | Product List | Glossary On
Versions: 1 2 3 4 5 6 7 8 9 10 11 12 13 14 15 16 17 18 19 20 21
000
FTUS41 KRNK 171728
TAFBCB
TAF
KBCB 171728Z 1718/1818 VRB03KT P6SM VCSH SCT050
      TEMPO 1719/1720 4SM SHRA BKN040
     FM180600 VRB03KT 2SM BR SCT005
     FM181100 VRB03KT 5SM BR FEW005 BKN080
     FM181300 VRB03KT P6SM VCSH BKN040 BKN250=

USA.gov is the U.S. government's official web portal to all federal, state and local government web resources and services.